Time;durP1;ratioP1;P1;durP2;ratioP2;P2;SDS_P1;SDS_P2;PMS_P1;PMS_P2;Temp;Humidity;BMP_temperature;BMP_pressure;BME280_temperature;BME280_humidity;BME280_pressure;Samples;Min_cycle;Max_cycle;Signal;HPM_P1;HPM_P2
2023/05/08 00:00:38;;;;;;;0.30;0.20;;;;;;;30.92;36.89;100042.03;7398623;19;20013;-77
2023/05/08 00:03:05;;;;;;;0.30;0.30;;;;;;;30.87;37.49;100049.63;7397457;19;20357;-76
2023/05/08 00:05:31;;;;;;;0.30;0.30;;;;;;;30.80;36.89;100044.78;7400285;19;20833;-77
2023/05/08 00:08:00;;;;;;;0.85;0.63;;;;;;;30.65;37.18;100054.56;7398623;19;20027;-77
2023/05/08 00:10:27;;;;;;;0.28;0.28;;;;;;;30.60;37.01;100055.63;7397995;19;20448;-77
2023/05/08 00:12:54;;;;;;;0.75;0.55;;;;;;;30.46;37.17;100056.75;7399825;19;20011;-77
2023/05/08 00:15:21;;;;;;;1.05;0.30;;;;;;;30.42;37.57;100053.59;7399652;19;20117;-77
2023/05/08 00:17:48;;;;;;;0.63;0.63;;;;;;;30.41;37.63;100057.81;7397762;19;20022;-76
2023/05/08 00:20:14;;;;;;;0.95;0.70;;;;;;;30.41;37.10;100052.06;7397280;19;20467;-76
2023/05/08 00:22:40;;;;;;;0.25;0.15;;;;;;;30.28;37.44;100050.44;7398508;19;20044;-74
2023/05/08 00:25:07;;;;;;;0.50;0.50;;;;;;;30.08;37.26;100053.97;7398051;19;20459;-74
2023/05/08 00:27:34;;;;;;;0.52;0.52;;;;;;;29.99;37.32;100056.22;7397721;19;20010;-75
2023/05/08 00:30:00;;;;;;;0.22;0.20;;;;;;;30.01;37.00;100054.88;7397062;19;20376;-74
2023/05/08 00:32:26;;;;;;;1.65;0.90;;;;;;;30.02;37.22;100050.66;7394611;19;20383;-74
2023/05/08 00:34:52;;;;;;;2.58;0.52;;;;;;;30.00;37.06;100048.38;7397778;19;20346;-75
2023/05/08 00:37:19;;;;;;;0.80;0.55;;;;;;;29.84;37.27;100047.94;7395705;19;20347;-74
2023/05/08 00:39:45;;;;;;;0.15;0.15;;;;;;;29.80;37.45;100047.66;7401025;19;20014;-75
2023/05/08 00:42:11;;;;;;;0.30;0.30;;;;;;;29.78;37.31;100044.63;7397327;19;20074;-74
2023/05/08 00:44:38;;;;;;;1.05;0.40;;;;;;;29.84;37.70;100044.34;7396173;19;20463;-76
2023/05/08 00:47:06;;;;;;;0.93;0.57;;;;;;;29.85;37.32;100048.69;7394843;19;20355;-74
2023/05/08 00:49:34;;;;;;;0.20;0.20;;;;;;;29.93;37.48;100044.31;7396426;19;20015;-75
2023/05/08 00:52:03;;;;;;;0.30;0.30;;;;;;;29.94;37.25;100042.19;7395247;19;20010;-75
2023/05/08 00:54:30;;;;;;;1.20;0.55;;;;;;;29.92;37.32;100048.56;7396373;19;20477;-74
2023/05/08 00:56:56;;;;;;;1.38;0.35;;;;;;;29.92;37.40;100037.06;7398950;19;20015;-74
2023/05/08 00:59:24;;;;;;;0.47;0.47;;;;;;;30.01;37.23;100037.66;7395602;19;20372;-76
2023/05/08 01:01:51;;;;;;;0.30;0.30;;;;;;;30.02;37.22;100039.19;7394784;19;20014;-73
2023/05/08 01:04:24;;;;;;;0.28;0.28;;;;;;;29.57;37.18;100038.72;7393461;19;20007;-72
2023/05/08 01:06:50;;;;;;;0.38;0.38;;;;;;;29.24;37.60;100041.28;7399275;19;20014;-70
2023/05/08 01:09:16;;;;;;;0.73;0.40;;;;;;;29.24;37.73;100037.66;7395751;19;20034;-76
2023/05/08 01:11:51;;;;;;;0.47;0.47;;;;;;;29.31;37.34;100036.75;7396959;19;20035;-77
2023/05/08 01:14:46;;;;;;;0.68;0.25;;;;;;;29.34;37.26;100029.06;7398930;19;20018;-78
2023/05/08 01:17:22;;;;;;;1.85;0.30;;;;;;;29.20;37.05;100032.38;7398548;19;20010;-76
2023/05/08 01:20:18;;;;;;;0.30;0.30;;;;;;;29.37;37.34;100022.13;7394063;19;20011;-74
2023/05/08 01:23:07;;;;;;;0.30;0.30;;;;;;;29.19;37.20;100030.09;7397288;19;20010;-76
2023/05/08 01:25:53;;;;;;;0.60;0.60;;;;;;;29.22;37.65;100028.88;7397951;19;20355;-76
2023/05/08 01:28:41;;;;;;;1.63;0.88;;;;;;;29.24;37.55;100026.16;7396257;19;20069;-77
2023/05/08 01:31:25;;;;;;;0.40;0.40;;;;;;;29.24;37.60;100023.28;7394101;19;20010;-75
2023/05/08 01:34:07;;;;;;;0.25;0.25;;;;;;;29.97;36.96;100015.88;7393089;19;20552;-77
2023/05/08 01:36:33;;;;;;;1.02;0.60;;;;;;;30.49;36.05;100006.69;7398166;19;20014;-78
2023/05/08 01:39:26;;;;;;;2.70;0.55;;;;;;;30.67;35.64;100017.31;7396864;19;20364;-76
2023/05/08 01:42:01;;;;;;;0.40;0.40;;;;;;;30.64;35.85;100012.81;7394630;19;20023;-76
2023/05/08 01:44:44;;;;;;;0.40;0.30;;;;;;;30.54;35.90;100008.44;7394065;19;20029;-78
2023/05/08 01:47:11;;;;;;;1.10;0.68;;;;;;;30.47;35.70;100012.28;7395205;19;20018;-76
2023/05/08 01:49:42;;;;;;;1.85;0.17;;;;;;;30.55;35.65;100004.22;7395385;19;20011;-78
2023/05/08 01:52:25;;;;;;;0.32;0.32;;;;;;;30.52;36.04;100006.19;7394195;19;20011;-76
2023/05/08 01:55:10;;;;;;;0.93;0.93;;;;;;;30.55;35.95;100004.22;7395264;19;20014;-76
2023/05/08 01:57:42;;;;;;;0.98;0.43;;;;;;;30.40;35.61;99999.59;7397066;19;20034;-77
2023/05/08 02:00:09;;;;;;;0.30;0.30;;;;;;;30.15;35.98;100001.34;7393664;19;20014;-76
2023/05/08 02:02:40;;;;;;;0.35;0.35;;;;;;;30.51;35.73;99998.94;7395433;19;20021;-77
2023/05/08 02:05:08;;;;;;;0.43;0.43;;;;;;;30.61;35.42;99996.78;7396453;19;20014;-77
2023/05/08 02:07:38;;;;;;;0.73;0.28;;;;;;;30.73;35.58;100001.88;7395123;19;20026;-77
2023/05/08 02:10:07;;;;;;;0.20;0.20;;;;;;;30.68;35.63;100001.59;7396505;19;20014;-76
2023/05/08 02:12:35;;;;;;;0.30;0.30;;;;;;;30.76;35.27;99995.63;7393727;19;20042;-76
2023/05/08 02:15:02;;;;;;;1.45;0.43;;;;;;;30.88;35.28;100001.50;7394195;19;20018;-77
2023/05/08 02:17:30;;;;;;;2.60;0.43;;;;;;;30.85;34.96;99989.06;7398038;19;20014;-77
2023/05/08 02:19:59;;;;;;;1.20;1.02;;;;;;;30.77;35.07;99990.63;7394550;19;20034;-77
2023/05/08 02:22:25;;;;;;;1.42;0.68;;;;;;;30.68;35.43;99989.31;7393380;19;20018;-78
2023/05/08 02:24:56;;;;;;;0.43;0.43;;;;;;;30.73;35.41;99986.09;7394186;19;20048;-77
2023/05/08 02:27:25;;;;;;;0.30;0.30;;;;;;;30.62;35.77;99980.28;7396222;19;20370;-78
2023/05/08 02:29:53;;;;;;;0.65;0.47;;;;;;;30.77;35.47;99982.78;7401645;19;20010;-78
2023/05/08 02:32:23;;;;;;;0.30;0.30;;;;;;;31.00;35.31;99974.31;7397744;19;20035;-78
2023/05/08 02:34:52;;;;;;;0.98;0.88;;;;;;;30.97;35.32;99974.78;7400354;19;20014;-77
2023/05/08 02:37:21;;;;;;;0.10;0.10;;;;;;;30.86;35.21;99973.34;7398402;19;20046;-77
2023/05/08 02:39:50;;;;;;;0.10;0.10;;;;;;;30.99;35.55;99969.91;7403959;19;20017;-77
2023/05/08 02:42:16;;;;;;;0.90;0.52;;;;;;;31.15;35.14;99971.00;7401667;19;20010;-77
2023/05/08 02:44:44;;;;;;;0.22;0.22;;;;;;;31.13;35.11;99965.13;7399027;19;20010;-77
2023/05/08 02:47:33;;;;;;;1.27;0.60;;;;;;;31.54;34.92;99965.69;7405984;19;20355;-77
2023/05/08 02:50:12;;;;;;;1.30;0.60;;;;;;;30.97;35.46;99964.03;7400864;19;20462;-77
2023/05/08 02:52:48;;;;;;;0.60;0.47;;;;;;;31.07;35.28;99964.72;7400630;19;20039;-77
2023/05/08 02:55:31;;;;;;;0.80;0.80;;;;;;;31.39;35.07;99966.88;7401444;19;20497;-78
2023/05/08 02:58:07;;;;;;;0.30;0.30;;;;;;;31.43;34.76;99957.78;7400517;19;20011;-77
2023/05/08 03:00:42;;;;;;;0.30;0.20;;;;;;;31.28;34.92;99953.19;7399946;19;20018;-77
2023/05/08 03:03:35;;;;;;;1.58;0.63;;;;;;;31.14;35.01;99954.38;7400852;19;20687;-78
2023/05/08 03:06:07;;;;;;;0.28;0.28;;;;;;;31.17;35.25;99953.88;7399607;19;20369;-77
2023/05/08 03:08:35;;;;;;;0.75;0.55;;;;;;;30.52;36.20;99960.19;7400338;19;20018;-76
2023/05/08 03:11:07;;;;;;;1.73;0.77;;;;;;;30.46;35.89;99953.28;7398356;19;20029;-77
2023/05/08 03:13:37;;;;;;;0.30;0.30;;;;;;;30.56;35.81;99953.97;7399573;19;20074;-76
2023/05/08 03:16:06;;;;;;;0.30;0.30;;;;;;;30.85;35.67;99954.56;7402566;19;20062;-77
2023/05/08 03:18:37;;;;;;;0.30;0.30;;;;;;;30.57;35.57;99955.47;7401270;19;20021;-77
2023/05/08 03:21:05;;;;;;;0.38;0.38;;;;;;;30.36;35.90;99961.19;7403307;19;20013;-77
2023/05/08 03:23:35;;;;;;;0.38;0.38;;;;;;;30.23;36.48;99948.06;7400171;19;20086;-78
2023/05/08 03:26:02;;;;;;;0.43;0.43;;;;;;;30.14;36.48;99954.59;7402035;19;20479;-78
2023/05/08 03:28:30;;;;;;;0.20;0.20;;;;;;;30.14;36.39;99948.09;7399016;19;20018;-77
2023/05/08 03:30:59;;;;;;;1.38;0.63;;;;;;;30.11;37.02;99943.56;7399513;19;20357;-78
2023/05/08 03:33:28;;;;;;;0.30;0.30;;;;;;;30.14;36.99;99936.59;7400056;19;20035;-78
2023/05/08 03:35:56;;;;;;;1.85;0.35;;;;;;;30.15;36.74;99938.84;7401386;19;20336;-78
2023/05/08 03:38:22;;;;;;;0.95;0.80;;;;;;;30.15;36.44;99935.25;7398955;19;20017;-78
2023/05/08 03:40:49;;;;;;;0.63;0.40;;;;;;;30.07;36.34;99937.53;7400851;19;20010;-78
2023/05/08 03:43:17;;;;;;;1.30;0.50;;;;;;;29.86;36.59;99933.25;7398832;19;20017;-77
2023/05/08 03:45:45;;;;;;;0.50;0.32;;;;;;;29.83;36.94;99934.44;7400321;19;20845;-77
2023/05/08 03:48:13;;;;;;;0.20;0.20;;;;;;;29.55;37.33;99926.63;7398667;19;20018;-78
2023/05/08 03:50:40;;;;;;;0.30;0.20;;;;;;;29.20;37.81;99934.06;7396983;19;20017;-77
2023/05/08 03:53:09;;;;;;;3.20;0.32;;;;;;;29.19;37.29;99936.16;7398525;19;20514;-78
2023/05/08 03:55:35;;;;;;;0.73;0.40;;;;;;;29.41;37.24;99931.31;7399111;19;20082;-77
2023/05/08 03:58:25;;;;;;;0.35;0.35;;;;;;;29.52;36.99;99930.72;7398083;19;20011;-77
2023/05/08 04:01:04;;;;;;;0.90;0.60;;;;;;;29.55;37.14;99935.25;7398304;19;20027;-78
2023/05/08 04:04:03;;;;;;;0.77;0.50;;;;;;;29.69;37.12;99927.66;7397863;19;20074;-77
2023/05/08 04:06:43;;;;;;;2.55;0.75;;;;;;;29.83;37.14;99925.06;7400263;19;20022;-77
2023/05/08 04:09:37;;;;;;;0.47;0.47;;;;;;;29.90;37.04;99916.28;7398195;19;20129;-77
2023/05/08 04:12:09;;;;;;;0.28;0.28;;;;;;;29.47;37.57;99917.44;7395413;19;20017;-77
2023/05/08 04:15:00;;;;;;;3.10;0.70;;;;;;;29.52;37.41;99913.47;7398362;19;20390;-77
2023/05/08 04:17:38;;;;;;;0.32;0.32;;;;;;;29.53;37.40;99915.00;7401119;19;20031;-76
2023/05/08 04:20:07;;;;;;;0.43;0.43;;;;;;;29.37;37.37;99913.81;7396729;19;20064;-74
2023/05/08 04:22:38;;;;;;;0.20;0.20;;;;;;;29.43;37.56;99908.53;7396421;19;20026;-75
2023/05/08 04:25:06;;;;;;;5.22;0.73;;;;;;;29.31;37.60;99904.00;7397981;19;20020;-76
2023/05/08 04:27:34;;;;;;;1.08;0.70;;;;;;;29.38;37.99;99903.09;7396018;19;20009;-75
2023/05/08 04:30:00;;;;;;;0.73;0.43;;;;;;;29.50;37.80;99904.72;7396569;19;20034;-76
2023/05/08 04:32:29;;;;;;;0.52;0.30;;;;;;;29.38;38.21;99903.84;7393783;19;20014;-73
2023/05/08 04:34:55;;;;;;;1.15;0.70;;;;;;;29.46;38.12;99910.19;7395639;19;20467;-74
2023/05/08 04:37:28;;;;;;;0.10;0.10;;;;;;;29.70;37.91;99905.44;7400020;19;20010;-74
2023/05/08 04:39:58;;;;;;;1.58;0.60;;;;;;;29.99;37.95;99912.63;7399689;19;20048;-75
2023/05/08 04:42:25;;;;;;;0.43;0.43;;;;;;;29.98;37.56;99904.63;7396099;19;20018;-76
2023/05/08 04:44:53;;;;;;;0.63;0.63;;;;;;;30.21;37.41;99904.06;7395741;19;20015;-76
2023/05/08 04:47:20;;;;;;;3.22;1.05;;;;;;;31.04;37.11;99902.66;7399843;19;20014;-74
2023/05/08 04:49:46;;;;;;;0.20;0.17;;;;;;;31.61;36.13;99906.38;7395446;19;20015;-75
2023/05/08 04:52:13;;;;;;;0.40;0.30;;;;;;;31.77;35.93;99911.03;7393411;19;20010;-76
2023/05/08 04:54:39;;;;;;;8.25;0.43;;;;;;;32.00;35.55;99913.22;7395250;19;20018;-75
2023/05/08 04:57:06;;;;;;;0.30;0.20;;;;;;;32.14;35.56;99914.09;7397463;19;20321;-76
2023/05/08 04:59:33;;;;;;;0.85;0.30;;;;;;;32.29;35.15;99907.88;7396636;19;20060;-74
2023/05/08 05:02:01;;;;;;;0.75;0.40;;;;;;;32.30;35.22;99900.69;7396241;19;20025;-74
2023/05/08 05:04:28;;;;;;;0.43;0.20;;;;;;;32.34;35.58;99906.72;7395337;19;20026;-75
2023/05/08 05:06:55;;;;;;;2.35;0.40;;;;;;;32.40;35.57;99907.06;7397988;19;20480;-74
2023/05/08 05:09:23;;;;;;;0.40;0.40;;;;;;;32.37;35.45;99907.59;7395874;19;20010;-74
2023/05/08 05:11:49;;;;;;;1.75;0.77;;;;;;;32.40;35.24;99897.69;7392915;19;20018;-74
2023/05/08 05:14:16;;;;;;;1.17;0.80;;;;;;;32.21;35.84;99895.81;7396288;19;20479;-74
2023/05/08 05:16:42;;;;;;;0.85;0.60;;;;;;;32.10;35.48;99896.56;7397199;19;20039;-74
2023/05/08 05:19:08;;;;;;;1.45;0.50;;;;;;;32.29;36.04;99902.09;7394671;19;20018;-73
2023/05/08 05:21:36;;;;;;;0.10;0.10;;;;;;;32.43;36.05;99908.72;7394001;19;20011;-75
2023/05/08 05:24:04;;;;;;;0.82;0.45;;;;;;;32.67;35.48;99900.81;7394016;19;20396;-75
2023/05/08 05:26:30;;;;;;;5.53;0.50;;;;;;;32.77;35.42;99899.28;7395388;19;20094;-75
2023/05/08 05:28:57;;;;;;;1.85;0.52;;;;;;;32.92;35.20;99897.22;7397242;19;20040;-75
2023/05/08 05:31:23;;;;;;;5.68;0.32;;;;;;;32.78;35.67;99900.03;7393113;19;20078;-76
2023/05/08 05:33:50;;;;;;;0.30;0.30;;;;;;;32.76;35.73;99908.56;7394949;19;20521;-75
2023/05/08 05:36:16;;;;;;;0.30;0.30;;;;;;;32.89;35.52;99916.56;7394971;19;20519;-74
2023/05/08 05:38:43;;;;;;;0.38;0.35;;;;;;;32.67;35.94;99918.88;7394113;19;20060;-68
2023/05/08 05:41:09;;;;;;;0.93;0.30;;;;;;;32.65;36.02;99912.97;7393411;19;20014;-63
2023/05/08 05:43:35;;;;;;;2.22;0.52;;;;;;;32.85;36.25;99917.06;7393764;19;20475;-62
2023/05/08 05:46:05;;;;;;;0.30;0.30;;;;;;;32.84;35.91;99921.34;7393013;19;20035;-63
2023/05/08 05:48:32;;;;;;;1.13;0.85;;;;;;;32.85;35.77;99922.09;7393661;19;20359;-62
2023/05/08 05:50:58;;;;;;;0.30;0.20;;;;;;;32.86;35.78;99923.59;7392303;19;20010;-61
2023/05/08 05:53:25;;;;;;;0.45;0.15;;;;;;;32.90;35.98;99924.56;7392334;19;20078;-62
2023/05/08 05:55:51;;;;;;;0.30;0.30;;;;;;;32.96;35.95;99929.97;7392860;19;20041;-61
2023/05/08 05:58:19;;;;;;;0.38;0.20;;;;;;;32.83;36.25;99922.72;7393175;19;20032;-61
2023/05/08 06:00:46;;;;;;;0.50;0.50;;;;;;;32.81;36.22;99922.59;7396087;19;20469;-61
2023/05/08 06:03:13;;;;;;;0.95;0.57;;;;;;;32.82;35.77;99915.44;7392813;19;20021;-62
2023/05/08 06:05:40;;;;;;;2.90;0.60;;;;;;;32.71;36.33;99907.56;7393920;19;20066;-63
2023/05/08 06:08:07;;;;;;;1.50;0.45;;;;;;;32.56;36.20;99902.34;7393278;19;20026;-63
2023/05/08 06:10:33;;;;;;;4.15;0.40;;;;;;;32.38;36.31;99912.00;7397138;19;20018;-63
2023/05/08 06:13:00;;;;;;;0.35;0.35;;;;;;;32.30;36.82;99902.81;7393193;19;20553;-62
2023/05/08 06:15:26;;;;;;;2.38;0.88;;;;;;;32.62;36.58;99904.81;7392901;19;20019;-62
2023/05/08 06:17:53;;;;;;;0.40;0.38;;;;;;;32.77;36.52;99901.41;7392116;19;20010;-61
2023/05/08 06:20:19;;;;;;;2.10;0.80;;;;;;;32.86;36.45;99892.59;7394078;19;20076;-62
2023/05/08 06:22:45;;;;;;;0.17;0.17;;;;;;;33.11;36.51;99897.69;7393932;19;20332;-61
2023/05/08 06:25:12;;;;;;;0.77;0.22;;;;;;;33.05;36.08;99905.25;7393285;19;20018;-61
2023/05/08 06:27:38;;;;;;;2.33;0.82;;;;;;;33.20;36.33;99904.69;7393867;19;20011;-61
2023/05/08 06:30:07;;;;;;;1.80;0.43;;;;;;;33.24;36.14;99904.91;7394439;19;20316;-61
2023/05/08 06:32:33;;;;;;;0.60;0.38;;;;;;;34.00;35.70;99894.06;7391709;19;20040;-61
2023/05/08 06:34:59;;;;;;;1.00;0.20;;;;;;;33.83;35.63;99900.34;7392821;19;20351;-61
2023/05/08 06:37:25;;;;;;;0.90;0.50;;;;;;;33.80;36.02;99901.59;7391972;19;20409;-61
2023/05/08 06:39:51;;;;;;;0.52;0.40;;;;;;;33.82;35.71;99899.59;7394596;19;20014;-62
2023/05/08 06:42:18;;;;;;;4.93;0.77;;;;;;;34.02;35.53;99889.16;7397900;19;20031;-62
2023/05/08 06:44:45;;;;;;;0.47;0.30;;;;;;;34.07;35.56;99890.88;7391721;19;20477;-62
2023/05/08 06:47:11;;;;;;;2.60;0.25;;;;;;;34.22;35.36;99896.03;7393721;19;20011;-62
2023/05/08 06:49:37;;;;;;;1.15;0.45;;;;;;;34.09;35.38;99888.09;7390440;19;20525;-62
2023/05/08 06:52:04;;;;;;;0.40;0.30;;;;;;;34.20;35.38;99892.25;7395530;19;20399;-62
2023/05/08 06:54:30;;;;;;;0.60;0.52;;;;;;;34.22;35.36;99886.59;7392291;19;20343;-62
2023/05/08 06:56:56;;;;;;;0.70;0.32;;;;;;;34.17;35.07;99887.78;7393019;19;20022;-62
2023/05/08 06:59:22;;;;;;;0.80;0.65;;;;;;;34.18;35.38;99895.81;7392660;19;20025;-62
2023/05/08 07:01:49;;;;;;;0.93;0.55;;;;;;;34.01;35.17;99886.91;7394914;19;20503;-62
2023/05/08 07:04:15;;;;;;;1.48;0.40;;;;;;;33.84;35.59;99885.25;7391931;19;20066;-62
2023/05/08 07:06:42;;;;;;;0.10;0.10;;;;;;;33.83;35.41;99880.84;7392344;19;20390;-62
2023/05/08 07:09:08;;;;;;;0.28;0.15;;;;;;;33.92;35.62;99885.69;7393519;19;20066;-62
2023/05/08 07:11:35;;;;;;;1.95;0.63;;;;;;;34.01;35.76;99881.88;7390639;19;20018;-62
2023/05/08 07:14:01;;;;;;;0.68;0.45;;;;;;;34.14;35.73;99878.25;7398781;19;20048;-62
2023/05/08 07:16:27;;;;;;;3.13;0.63;;;;;;;33.94;36.02;99876.38;7401822;19;20982;-62
2023/05/08 07:18:53;;;;;;;1.13;0.60;;;;;;;33.97;36.01;99870.06;7399831;19;20332;-61
2023/05/08 07:21:20;;;;;;;1.50;0.82;;;;;;;34.00;35.95;99871.66;7400057;19;20010;-62
2023/05/08 07:23:47;;;;;;;0.63;0.50;;;;;;;34.19;35.90;99873.44;7400388;19;20350;-61
2023/05/08 07:26:14;;;;;;;2.85;0.30;;;;;;;33.99;35.64;99883.88;7399130;19;20007;-62
2023/05/08 07:28:40;;;;;;;1.95;0.43;;;;;;;33.85;35.57;99868.66;7398600;19;20066;-62
2023/05/08 07:31:06;;;;;;;3.03;0.75;;;;;;;33.75;35.61;99873.88;7397703;19;20078;-62
2023/05/08 07:33:33;;;;;;;0.47;0.30;;;;;;;33.58;36.46;99872.22;7400381;19;20030;-62
2023/05/08 07:36:00;;;;;;;0.20;0.15;;;;;;;33.73;36.38;99870.88;7399610;19;20010;-62
2023/05/08 07:38:26;;;;;;;1.25;0.55;;;;;;;33.59;36.51;99870.84;7397361;19;20083;-62
2023/05/08 07:40:55;;;;;;;5.43;0.55;;;;;;;33.73;36.40;99865.84;7398898;19;20463;-62
2023/05/08 07:43:22;;;;;;;1.13;0.40;;;;;;;33.82;36.05;99876.47;7399160;19;20014;-63
2023/05/08 07:45:49;;;;;;;0.32;0.15;;;;;;;33.84;36.33;99872.94;7398302;19;20014;-63
2023/05/08 07:48:15;;;;;;;0.60;0.30;;;;;;;33.80;36.10;99864.81;7398575;19;20481;-63
2023/05/08 07:50:41;;;;;;;1.63;0.50;;;;;;;33.64;35.97;99866.78;7398406;19;20455;-63
2023/05/08 07:53:08;;;;;;;2.15;0.70;;;;;;;33.78;35.96;99869.72;7398729;19;20006;-63
2023/05/08 07:55:34;;;;;;;0.20;0.20;;;;;;;33.70;36.13;99872.91;7397584;19;20337;-62
2023/05/08 07:58:00;;;;;;;0.57;0.35;;;;;;;33.67;36.32;99874.19;7395817;19;20250;-62
2023/05/08 08:00:26;;;;;;;1.05;0.20;;;;;;;33.55;36.56;99879.28;7397097;19;20025;-62
2023/05/08 08:02:52;;;;;;;0.30;0.15;;;;;;;33.41;36.31;99879.22;7397711;19;20011;-63
2023/05/08 08:05:19;;;;;;;1.92;0.57;;;;;;;33.47;36.62;99875.91;7398527;19;20014;-62
2023/05/08 08:07:45;;;;;;;0.20;0.20;;;;;;;33.58;36.40;99883.78;7397520;19;20018;-62
2023/05/08 08:10:11;;;;;;;0.20;0.15;;;;;;;33.38;35.95;99885.50;7399282;19;20018;-62
2023/05/08 08:12:37;;;;;;;0.38;0.20;;;;;;;33.30;36.29;99879.28;7395080;19;20018;-62
2023/05/08 08:15:04;;;;;;;0.50;0.40;;;;;;;33.21;35.82;99880.19;7400639;19;20425;-63
2023/05/08 08:17:31;;;;;;;1.48;0.60;;;;;;;33.27;36.08;99883.41;7401639;19;20015;-62
2023/05/08 08:19:57;;;;;;;0.35;0.35;;;;;;;33.35;36.28;99883.91;7397870;19;20010;-62
2023/05/08 08:22:24;;;;;;;1.70;0.73;;;;;;;33.43;36.11;99875.69;7395196;19;20011;-62
2023/05/08 08:24:51;;;;;;;0.20;0.20;;;;;;;32.63;37.34;99880.38;7400374;19;20010;-61
2023/05/08 08:27:17;;;;;;;0.40;0.20;;;;;;;32.41;37.95;99879.00;7396849;19;20321;-62
2023/05/08 08:29:44;;;;;;;0.55;0.25;;;;;;;32.79;37.15;99878.47;7396076;19;20070;-62
2023/05/08 08:32:10;;;;;;;0.95;0.10;;;;;;;33.11;36.41;99885.41;7395960;19;20015;-63
2023/05/08 08:34:36;;;;;;;1.40;0.22;;;;;;;20.12;93.65;99903.69;7399382;19;20007;-62
2023/05/08 08:37:04;;;;;;;0.93;0.68;;;;;;;22.05;83.35;99896.03;7396696;19;20024;-62
2023/05/08 08:39:33;;;;;;;0.82;0.20;;;;;;;29.02;58.61;99878.19;7399169;19;20074;-63
2023/05/08 08:42:00;;;;;;;0.73;0.30;;;;;;;31.93;46.34;99871.72;7396355;19;20018;-63
2023/05/08 08:44:27;;;;;;;1.20;0.30;;;;;;;32.66;43.80;99876.25;7398104;19;20015;-63
2023/05/08 08:46:53;;;;;;;1.27;0.30;;;;;;;32.70;42.76;99876.47;7396400;19;20034;-63
2023/05/08 08:49:35;;;;;;;0.47;0.40;;;;;;;33.13;41.95;99866.06;7393579;19;20095;-65
2023/05/08 08:52:09;;;;;;;4.10;0.43;;;;;;;33.32;41.24;99865.72;7393903;19;20017;-65
2023/05/08 08:54:37;;;;;;;0.50;0.45;;;;;;;33.24;40.20;99865.25;7400053;19;20015;-64
2023/05/08 08:57:06;;;;;;;0.45;0.30;;;;;;;33.28;40.15;99865.47;7396573;19;20603;-64
2023/05/08 08:59:35;;;;;;;5.45;0.50;;;;;;;33.28;39.80;99858.94;7398261;19;20014;-65
2023/05/08 09:02:07;;;;;;;0.73;0.10;;;;;;;33.35;39.66;99860.81;7400119;19;20014;-65
2023/05/08 09:04:34;;;;;;;0.32;0.17;;;;;;;33.42;39.68;99851.81;7397520;19;20015;-63
2023/05/08 09:07:04;;;;;;;0.98;0.30;;;;;;;33.11;39.16;99857.28;7395666;19;20021;-64
2023/05/08 09:09:36;;;;;;;10.73;0.40;;;;;;;33.07;39.76;99851.25;7398267;19;20017;-64
2023/05/08 09:12:03;;;;;;;0.32;0.20;;;;;;;33.21;39.64;99842.66;7394479;19;20029;-64
2023/05/08 09:14:29;;;;;;;0.52;0.47;;;;;;;33.49;39.77;99842.13;7397003;19;20399;-64
2023/05/08 09:16:55;;;;;;;0.30;0.20;;;;;;;33.66;38.68;99843.78;7397936;19;20037;-65
2023/05/08 09:19:22;;;;;;;0.30;0.25;;;;;;;33.80;38.99;99838.03;7395760;19;20062;-65
2023/05/08 09:21:51;;;;;;;1.05;0.47;;;;;;;33.86;39.06;99835.47;7392951;19;20042;-65
2023/05/08 09:24:18;;;;;;;0.32;0.20;;;;;;;33.73;38.46;99831.19;7392903;19;20011;-65
2023/05/08 09:26:44;;;;;;;1.05;0.40;;;;;;;33.69;38.78;99833.84;7394645;19;20006;-65
2023/05/08 09:29:16;;;;;;;1.08;0.32;;;;;;;33.68;39.29;99815.00;7392113;19;20025;-65
2023/05/08 09:31:44;;;;;;;0.80;0.57;;;;;;;33.64;38.95;99829.22;7392486;19;20017;-65
2023/05/08 09:34:25;;;;;;;2.33;0.43;;;;;;;33.67;38.97;99825.06;7394663;19;20458;-66
2023/05/08 09:36:52;;;;;;;0.90;0.45;;;;;;;33.82;39.23;99818.66;7395669;19;20022;-65
2023/05/08 09:39:23;;;;;;;1.23;0.20;;;;;;;34.10;39.18;99814.44;7396990;19;20481;-66
2023/05/08 09:42:05;;;;;;;1.42;0.32;;;;;;;34.16;38.78;99806.06;7394168;19;20010;-66
2023/05/08 09:44:51;;;;;;;0.10;0.10;;;;;;;34.45;38.69;99810.41;7395188;19;20462;-66
2023/05/08 09:47:22;;;;;;;0.20;0.15;;;;;;;34.37;38.58;99810.00;7397136;19;20003;-66
2023/05/08 09:49:55;;;;;;;;;;;;;;;34.47;37.95;99804.75;7395504;19;20484;-66
2023/05/08 09:52:22;;;;;;;0.20;0.20;;;;;;;34.24;37.97;99802.88;7392779;19;19915;-66
2023/05/08 09:55:05;;;;;;;0.30;0.30;;;;;;;34.27;38.33;99805.19;7393346;19;20034;-66
2023/05/08 09:57:53;;;;;;;0.20;0.20;;;;;;;34.58;38.13;99806.78;7397629;19;20070;-66
2023/05/08 10:00:19;;;;;;;2.95;1.20;;;;;;;34.57;38.12;99799.47;7393384;19;20062;-65
2023/05/08 10:02:56;;;;;;;0.73;0.60;;;;;;;34.58;37.77;99792.31;7394197;19;20359;-68
2023/05/08 10:05:30;;;;;;;19.40;1.88;;;;;;;34.55;38.08;99802.28;7393899;19;20034;-65
2023/05/08 10:07:58;;;;;;;5.55;0.50;;;;;;;34.55;38.15;99799.38;7398113;19;20034;-66
2023/05/08 10:10:26;;;;;;;0.63;0.55;;;;;;;34.38;38.08;99797.78;7393233;19;20462;-66
2023/05/08 10:12:55;;;;;;;7.45;1.48;;;;;;;34.40;38.16;99788.47;7391856;19;20534;-65
2023/05/08 10:15:23;;;;;;;0.77;0.30;;;;;;;34.52;38.02;99783.34;7394006;19;20018;-64
2023/05/08 10:17:57;;;;;;;2.70;0.82;;;;;;;34.48;38.12;99788.91;7396648;19;20340;-65
2023/05/08 10:20:28;;;;;;;0.90;0.32;;;;;;;34.58;38.38;99789.44;7394063;19;20013;-65
2023/05/08 10:22:56;;;;;;;2.55;0.90;;;;;;;34.78;38.22;99787.56;7394464;19;20074;-65
2023/05/08 10:25:23;;;;;;;0.20;0.13;;;;;;;34.69;38.48;99782.75;7393812;19;20017;-65
2023/05/08 10:27:54;;;;;;;0.35;0.15;;;;;;;34.66;38.41;99786.94;7397952;19;20019;-65
2023/05/08 10:30:23;;;;;;;;;;;;;;;35.86;36.54;99791.28;7393993;19;20080;-65
2023/05/08 10:32:53;;;;;;;0.55;0.10;;;;;;;34.62;37.59;99783.84;7391867;19;19927;-65
2023/05/08 10:35:20;;;;;;;0.73;0.10;;;;;;;34.61;38.09;99782.34;7392556;19;20565;-64
2023/05/08 10:37:48;;;;;;;2.55;0.47;;;;;;;34.49;37.42;99796.91;7396745;19;20006;-64
2023/05/08 10:40:14;;;;;;;0.32;0.20;;;;;;;34.33;38.08;99793.94;7393457;19;20027;-64
2023/05/08 10:42:41;;;;;;;0.30;0.30;;;;;;;34.33;38.41;99796.84;7393047;19;20358;-64
2023/05/08 10:45:08;;;;;;;1.45;0.22;;;;;;;34.65;38.54;99794.13;7393149;19;20015;-65
2023/05/08 10:47:53;;;;;;;0.85;0.40;;;;;;;34.71;38.37;99794.44;7393011;19;20011;-65
2023/05/08 10:50:56;;;;;;;0.32;0.32;;;;;;;34.96;38.24;99785.53;7400896;19;20037;-65
2023/05/08 10:53:38;;;;;;;2.78;0.47;;;;;;;34.93;37.66;99786.84;7401394;19;20011;-65
2023/05/08 10:56:05;;;;;;;1.67;0.35;;;;;;;34.76;37.91;99791.06;7401207;19;20019;-64
2023/05/08 10:58:40;;;;;;;0.55;0.30;;;;;;;34.78;38.22;99787.56;7399928;19;20058;-64
2023/05/08 11:01:06;;;;;;;10.02;0.55;;;;;;;34.78;37.86;99784.66;7399842;19;20007;-64
2023/05/08 11:03:38;;;;;;;0.93;0.52;;;;;;;34.62;38.30;99786.72;7400167;19;20350;-64
2023/05/08 11:06:04;;;;;;;0.45;0.32;;;;;;;34.77;38.47;99774.47;7399814;19;20342;-65
2023/05/08 11:08:31;;;;;;;3.83;0.40;;;;;;;34.81;37.99;99780.44;7402668;19;20395;-64
2023/05/08 11:10:57;;;;;;;9.30;0.45;;;;;;;34.79;38.09;99786.88;7399039;19;20078;-64
2023/05/08 11:13:45;;;;;;;0.57;0.20;;;;;;;34.90;38.00;99788.13;7398782;19;20010;-63
2023/05/08 11:16:12;;;;;;;1.95;0.30;;;;;;;35.04;38.45;99780.91;7401231;19;20371;-63
2023/05/08 11:19:17;;;;;;;0.60;0.40;;;;;;;35.35;38.36;99777.31;7399819;19;20346;-64
2023/05/08 11:22:09;;;;;;;0.20;0.10;;;;;;;35.48;37.87;99776.50;7399476;19;20015;-64
2023/05/08 11:24:37;;;;;;;0.73;0.10;;;;;;;35.41;37.85;99779.75;7397265;19;20023;-64
2023/05/08 11:27:03;;;;;;;0.38;0.20;;;;;;;35.49;38.08;99772.22;7402414;19;20034;-64
2023/05/08 11:29:30;;;;;;;0.47;0.17;;;;;;;35.22;37.70;99778.13;7400413;19;20022;-64
2023/05/08 11:31:56;;;;;;;0.95;0.10;;;;;;;35.22;37.79;99772.34;7397385;19;20078;-64
2023/05/08 11:34:40;;;;;;;5.30;0.80;;;;;;;35.51;37.69;99775.22;7399131;19;20018;-64
2023/05/08 11:37:22;;;;;;;4.45;0.20;;;;;;;35.51;37.68;99781.00;7400614;19;20105;-64
2023/05/08 11:39:49;;;;;;;1.63;0.20;;;;;;;35.21;37.34;99776.66;7399475;19;20066;-63
2023/05/08 11:42:24;;;;;;;0.73;0.32;;;;;;;34.56;39.01;99771.97;7398352;19;20034;-66
2023/05/08 11:45:04;;;;;;;2.53;0.57;;;;;;;34.59;38.55;99770.69;7396288;19;20015;-66